createdAt,value
2018-07-04T00:01:44.619Z,5.50
2018-07-04T00:04:23.726Z,9.10
2018-07-04T00:07:02.806Z,7.10
2018-07-04T00:09:41.995Z,3.40
2018-07-04T00:12:21.125Z,4.67
2018-07-04T00:15:00.279Z,4.60
2018-07-04T00:17:40.045Z,4.93
2018-07-04T00:20:25.159Z,4.87
2018-07-04T00:23:07.558Z,3.93
2018-07-04T00:25:47.179Z,7.53
2018-07-04T00:28:26.288Z,3.70
2018-07-04T00:31:06.135Z,8.60
2018-07-04T00:33:45.354Z,4.10
2018-07-04T00:36:24.544Z,4.87
2018-07-04T00:39:04.583Z,5.30
2018-07-04T00:41:43.870Z,8.67
2018-07-04T00:44:22.911Z,5.93
2018-07-04T00:47:02.574Z,6.17
2018-07-04T00:49:41.788Z,6.40
2018-07-04T00:52:20.826Z,5.30
2018-07-04T00:55:00.033Z,4.90
2018-07-04T00:57:39.041Z,5.20
2018-07-04T01:00:18.299Z,4.67
2018-07-04T01:02:57.355Z,5.20
2018-07-04T01:05:36.519Z,4.97
2018-07-04T01:08:15.566Z,7.13
2018-07-04T01:10:54.703Z,4.90
2018-07-04T01:13:33.982Z,4.80
2018-07-04T01:16:13.093Z,5.30
2018-07-04T01:18:52.862Z,8.13
2018-07-04T01:21:31.855Z,7.50
2018-07-04T01:24:10.920Z,7.93
2018-07-04T01:26:49.802Z,5.73
2018-07-04T01:29:28.874Z,5.50
2018-07-04T01:32:07.990Z,5.97
2018-07-04T01:34:47.090Z,7.17
2018-07-04T01:37:26.467Z,5.43
2018-07-04T01:40:05.692Z,5.57
2018-07-04T01:42:44.714Z,5.33
2018-07-04T01:45:23.927Z,8.50
2018-07-04T01:48:02.897Z,5.43
2018-07-04T01:50:41.974Z,8.40
2018-07-04T01:53:21.359Z,7.27
2018-07-04T01:56:00.642Z,7.23
2018-07-04T01:58:39.680Z,6.03
2018-07-04T02:01:18.988Z,6.40
2018-07-04T02:03:57.939Z,6.70
2018-07-04T02:06:36.915Z,8.87
2018-07-04T02:09:10.226Z,9.80
2018-07-04T02:11:49.185Z,5.67
2018-07-04T02:14:28.150Z,5.60
2018-07-04T02:17:07.251Z,8.43
2018-07-04T02:19:46.450Z,6.97
2018-07-04T02:22:25.493Z,6.23
2018-07-04T02:25:07.743Z,5.70
2018-07-04T02:27:46.590Z,7.77
2018-07-04T02:30:25.767Z,8.10
2018-07-04T02:33:04.883Z,6.53
2018-07-04T02:35:44.026Z,5.67
2018-07-04T02:38:23.093Z,9.20
2018-07-04T02:41:02.342Z,7.40
2018-07-04T02:43:41.584Z,9.40
2018-07-04T02:46:26.508Z,6.90
2018-07-04T02:49:05.657Z,7.80
2018-07-04T02:51:44.758Z,9.57
2018-07-04T02:54:23.767Z,7.20
2018-07-04T02:57:02.728Z,7.77
2018-07-04T02:59:41.599Z,6.80
2018-07-04T03:02:15.317Z,9.00
2018-07-04T03:04:54.245Z,8.20
2018-07-04T03:07:33.382Z,8.43
2018-07-04T03:10:12.502Z,11.23
2018-07-04T03:12:51.516Z,7.97
2018-07-04T03:15:30.498Z,7.80
2018-07-04T03:18:09.623Z,8.87
2018-07-04T03:20:48.546Z,6.60
2018-07-04T03:23:27.710Z,6.73
2018-07-04T03:26:06.630Z,9.37
2018-07-04T03:28:45.781Z,7.77
2018-07-04T03:31:24.757Z,6.20
2018-07-04T03:34:03.742Z,7.43
2018-07-04T03:36:42.703Z,8.03
2018-07-04T03:39:21.988Z,8.07
2018-07-04T03:42:00.992Z,8.80
2018-07-04T03:44:40.090Z,9.57
2018-07-04T03:47:19.320Z,6.73
2018-07-04T03:49:58.243Z,10.70
2018-07-04T03:52:37.286Z,8.47
2018-07-04T03:55:16.388Z,9.77
2018-07-04T03:57:55.594Z,7.13
2018-07-04T04:00:34.688Z,7.40
2018-07-04T04:03:13.695Z,7.43
2018-07-04T04:05:52.842Z,9.30
2018-07-04T04:08:32.012Z,8.87
2018-07-04T04:11:11.042Z,7.03
2018-07-04T04:13:49.990Z,8.03
2018-07-04T04:16:29.097Z,7.70
2018-07-04T04:19:08.160Z,8.17
2018-07-04T04:21:47.446Z,9.77
2018-07-04T04:24:26.442Z,7.10
2018-07-04T04:27:05.427Z,7.43
2018-07-04T04:29:45.203Z,8.37
2018-07-04T04:32:24.295Z,6.73
2018-07-04T04:35:03.232Z,9.33
2018-07-04T04:37:42.475Z,7.60
2018-07-04T04:40:21.443Z,12.30
2018-07-04T04:43:00.490Z,7.77
2018-07-04T04:45:39.420Z,6.60
2018-07-04T04:48:18.518Z,9.23
2018-07-04T04:50:57.661Z,6.10
2018-07-04T04:53:36.687Z,5.20
2018-07-04T04:56:15.639Z,6.67
2018-07-04T04:58:54.700Z,6.43
2018-07-04T05:01:33.762Z,6.03
2018-07-04T05:04:12.754Z,11.27
2018-07-04T05:06:51.454Z,9.30
2018-07-04T05:09:30.342Z,9.90
2018-07-04T05:12:09.294Z,8.13
2018-07-04T05:14:48.227Z,13.23
2018-07-04T05:17:26.954Z,9.70
2018-07-04T05:20:05.754Z,14.63
2018-07-04T05:22:44.607Z,10.70
2018-07-04T05:25:23.409Z,9.67
2018-07-04T05:28:02.290Z,10.70
2018-07-04T05:30:41.224Z,11.17
2018-07-04T05:33:19.851Z,12.27
2018-07-04T05:35:58.558Z,10.10
2018-07-04T05:38:37.449Z,12.93
2018-07-04T05:41:16.338Z,17.17
2018-07-04T05:43:55.230Z,17.30
2018-07-04T05:46:33.982Z,12.50
2018-07-04T05:49:13.033Z,16.33
2018-07-04T05:51:51.827Z,14.20
2018-07-04T05:54:30.759Z,19.13
2018-07-04T05:57:09.765Z,16.80
2018-07-04T05:59:48.665Z,13.20
2018-07-04T06:02:27.497Z,11.33
2018-07-04T06:05:00.588Z,14.47
2018-07-04T06:07:39.505Z,13.00
2018-07-04T06:10:18.374Z,15.30
2018-07-04T06:12:57.346Z,15.00
2018-07-04T06:15:36.160Z,12.13
2018-07-04T06:18:15.179Z,13.03
2018-07-04T06:20:54.318Z,13.47
2018-07-04T06:23:33.339Z,10.83
2018-07-04T06:26:12.322Z,12.83
2018-07-04T06:28:51.189Z,13.10
2018-07-04T06:31:30.848Z,11.60
2018-07-04T06:34:09.770Z,13.43
2018-07-04T06:36:48.549Z,15.00
2018-07-04T06:39:15.047Z,11.43
2018-07-04T06:41:41.441Z,12.97
2018-07-04T06:44:07.833Z,16.67
2018-07-04T06:46:34.236Z,20.97
2018-07-04T06:49:00.688Z,16.93
2018-07-04T06:51:27.042Z,19.13
2018-07-04T06:53:53.430Z,18.83
2018-07-04T06:56:19.825Z,19.07
2018-07-04T06:58:46.186Z,18.10
2018-07-04T07:01:12.646Z,22.83
2018-07-04T07:03:51.508Z,15.47
2018-07-04T07:06:30.372Z,15.63
2018-07-04T07:09:09.286Z,25.10
2018-07-04T07:11:48.109Z,22.83
2018-07-04T07:14:26.993Z,12.60
2018-07-04T07:17:05.827Z,17.00
2018-07-04T07:19:44.582Z,20.20
2018-07-04T07:22:23.914Z,14.47
2018-07-04T07:25:02.670Z,14.20
2018-07-04T07:27:41.539Z,15.60
2018-07-04T07:30:20.486Z,14.13
2018-07-04T07:32:59.287Z,11.80
2018-07-04T07:35:38.154Z,14.47
2018-07-04T07:38:17.131Z,19.67
2018-07-04T07:40:56.088Z,12.90
2018-07-04T07:43:34.983Z,13.47
2018-07-04T07:46:13.756Z,16.43
2018-07-04T07:48:52.578Z,11.73
2018-07-04T07:51:31.594Z,14.90
2018-07-04T07:54:10.454Z,12.80
2018-07-04T07:56:49.254Z,12.73
2018-07-04T07:59:28.162Z,12.53
2018-07-04T08:02:07.115Z,11.53
2018-07-04T08:04:46.114Z,12.80
2018-07-04T08:07:25.009Z,11.70
2018-07-04T08:10:03.845Z,13.40
2018-07-04T08:12:42.745Z,12.07
2018-07-04T08:15:21.823Z,12.77
2018-07-04T08:18:01.102Z,9.60
2018-07-04T08:20:41.568Z,7.13
2018-07-04T08:23:20.500Z,13.13
2018-07-04T08:25:59.654Z,12.97
2018-07-04T08:28:39.472Z,13.23
2018-07-04T08:31:18.276Z,9.27
2018-07-04T08:33:57.215Z,14.33
2018-07-04T08:36:36.928Z,11.10
2018-07-04T08:39:15.897Z,7.17
2018-07-04T08:41:55.438Z,9.87
2018-07-04T08:44:34.416Z,8.00
2018-07-04T08:47:13.437Z,12.07
2018-07-04T08:49:52.419Z,8.83
2018-07-04T08:52:31.644Z,7.50
2018-07-04T08:55:10.643Z,7.23
2018-07-04T08:57:49.716Z,7.17
2018-07-04T09:00:28.626Z,10.57
2018-07-04T09:03:08.014Z,12.37
2018-07-04T09:05:46.949Z,6.10
2018-07-04T09:08:27.765Z,7.80
2018-07-04T09:11:06.612Z,8.87
2018-07-04T09:13:46.398Z,7.90
2018-07-04T09:16:25.214Z,9.93
2018-07-04T09:19:08.651Z,9.30
2018-07-04T09:21:47.474Z,9.87
2018-07-04T09:24:27.303Z,9.00
2018-07-04T09:27:06.170Z,7.87
2018-07-04T09:29:49.353Z,11.97
2018-07-04T09:32:28.189Z,9.90
2018-07-04T09:35:07.833Z,7.70
2018-07-04T09:37:46.641Z,6.47
2018-07-04T09:40:30.586Z,7.10
2018-07-04T09:43:09.482Z,7.93
2018-07-04T09:45:49.374Z,7.70
2018-07-04T09:48:28.304Z,14.00
2018-07-04T09:51:10.483Z,5.60
2018-07-04T09:53:49.340Z,10.13
2018-07-04T09:56:22.378Z,7.43
2018-07-04T09:59:01.591Z,6.93
2018-07-04T10:01:40.582Z,4.60
2018-07-04T10:04:19.510Z,4.93
2018-07-04T10:06:58.267Z,5.60
2018-07-04T10:09:38.110Z,8.13
2018-07-04T10:12:16.874Z,5.50
2018-07-04T10:14:57.897Z,10.00
2018-07-04T10:17:36.810Z,8.93
2018-07-04T10:20:15.993Z,5.07
2018-07-04T10:22:54.904Z,6.07
2018-07-04T10:25:34.939Z,5.60
2018-07-04T10:28:13.888Z,7.10
2018-07-04T10:30:52.882Z,5.63
2018-07-04T10:33:31.791Z,7.90
2018-07-04T10:36:10.848Z,5.27
2018-07-04T10:38:49.687Z,5.13
2018-07-04T10:41:28.742Z,7.20
2018-07-04T10:44:07.700Z,7.87
2018-07-04T10:46:45.574Z,4.50
2018-07-04T10:49:24.437Z,8.30
2018-07-04T10:52:10.487Z,7.00
2018-07-04T10:54:49.473Z,5.43
2018-07-04T10:57:29.394Z,6.20
2018-07-04T11:00:08.127Z,4.20
2018-07-04T11:02:48.035Z,5.97
2018-07-04T11:05:26.974Z,4.80
2018-07-04T11:08:06.260Z,8.67
2018-07-04T11:10:45.221Z,3.23
2018-07-04T11:13:29.999Z,4.70
2018-07-04T11:16:03.146Z,5.37
2018-07-04T11:18:47.771Z,5.80
2018-07-04T11:21:26.542Z,3.13
2018-07-04T11:24:06.385Z,3.20
2018-07-04T11:26:45.156Z,3.03
2018-07-04T11:29:24.651Z,5.10
2018-07-04T11:32:03.525Z,4.53
2018-07-04T11:34:43.396Z,7.10
2018-07-04T11:37:22.373Z,5.27
2018-07-04T11:40:04.368Z,4.50
2018-07-04T11:42:43.267Z,5.33
2018-07-04T11:45:23.577Z,5.60
2018-07-04T11:47:49.962Z,4.83
2018-07-04T11:50:16.355Z,4.17
2018-07-04T11:52:42.763Z,4.03
2018-07-04T11:57:49.215Z,5.07
2018-07-04T12:00:15.626Z,4.33
2018-07-04T12:02:42.033Z,4.53
2018-07-04T12:05:20.956Z,3.87
2018-07-04T12:07:51.149Z,5.30
2018-07-04T12:10:18.055Z,4.20
2018-07-04T12:12:44.513Z,4.03
2018-07-04T12:15:10.987Z,5.00
2018-07-04T12:17:37.540Z,6.30
2018-07-04T12:20:03.953Z,3.00
2018-07-04T12:22:30.358Z,4.83
2018-07-04T12:24:56.876Z,3.20
2018-07-04T12:27:23.300Z,2.83
2018-07-04T12:29:53.235Z,3.73
2018-07-04T12:32:19.645Z,4.20
2018-07-04T12:34:46.062Z,6.67
2018-07-04T12:37:12.530Z,2.67
2018-07-04T12:39:38.930Z,2.13
2018-07-04T12:42:05.698Z,3.30
2018-07-04T12:44:37.178Z,3.13
2018-07-04T12:47:03.641Z,2.13
2018-07-04T12:49:30.036Z,5.97
2018-07-04T12:51:56.459Z,3.17
2018-07-04T12:54:28.391Z,2.87
2018-07-04T12:57:07.247Z,3.93
2018-07-04T12:59:46.187Z,4.60
2018-07-04T13:02:24.992Z,2.87
2018-07-04T13:05:04.049Z,3.90
2018-07-04T13:07:43.129Z,4.63
2018-07-04T13:10:22.085Z,3.10
2018-07-04T13:13:00.996Z,2.57
2018-07-04T13:15:39.812Z,3.37
2018-07-04T13:18:18.675Z,3.10
2018-07-04T13:20:57.764Z,2.67
2018-07-04T13:23:36.676Z,6.43
2018-07-04T13:26:21.898Z,3.30
2018-07-04T13:29:03.952Z,3.33
2018-07-04T13:31:42.807Z,4.20
2018-07-04T13:34:22.122Z,4.93
2018-07-04T13:37:00.994Z,5.40
2018-07-04T13:39:41.755Z,5.30
2018-07-04T13:42:20.683Z,4.57
2018-07-04T13:45:00.077Z,3.30
2018-07-04T13:47:38.750Z,3.13
2018-07-04T13:50:18.526Z,2.87
2018-07-04T13:52:57.435Z,3.30
2018-07-04T13:55:41.186Z,3.97
2018-07-04T13:58:23.285Z,7.30
2018-07-04T14:01:13.087Z,3.70
2018-07-04T14:03:54.106Z,5.50
2018-07-04T14:06:40.183Z,5.77
2018-07-04T14:09:18.957Z,6.33
2018-07-04T14:11:58.134Z,4.37
2018-07-04T14:14:44.854Z,4.33
2018-07-04T14:17:23.908Z,3.70
2018-07-04T14:20:03.055Z,4.63
2018-07-04T14:22:42.072Z,5.87
2018-07-04T14:25:22.081Z,5.50
2018-07-04T14:28:01.130Z,4.07
2018-07-04T14:30:42.656Z,3.63
2018-07-04T14:33:27.882Z,5.13
2018-07-04T14:36:07.583Z,3.50
2018-07-04T14:38:46.685Z,4.20
2018-07-04T14:41:25.585Z,6.43
2018-07-04T14:44:04.301Z,4.60
2018-07-04T14:46:46.737Z,3.47
2018-07-04T14:49:26.486Z,3.07
2018-07-04T14:52:07.061Z,3.80
2018-07-04T14:54:50.002Z,3.03
2018-07-04T14:57:28.707Z,4.70
2018-07-04T15:00:08.574Z,3.80
2018-07-04T15:02:47.611Z,3.90
2018-07-04T15:05:26.630Z,3.77
2018-07-04T15:08:10.296Z,3.20
2018-07-04T15:10:49.459Z,3.10
2018-07-04T15:13:28.348Z,3.93
2018-07-04T15:16:09.612Z,4.50
2018-07-04T15:18:46.651Z,3.60
2018-07-04T15:21:25.861Z,7.30
2018-07-04T15:24:04.806Z,3.90
2018-07-04T15:26:43.917Z,6.10
2018-07-04T15:29:23.008Z,4.73
2018-07-04T15:32:02.181Z,4.10
2018-07-04T15:34:41.274Z,4.43
2018-07-04T15:37:20.472Z,4.53
2018-07-04T15:39:59.726Z,14.47
2018-07-04T15:42:41.994Z,5.10
2018-07-04T15:48:13.036Z,8.43
2018-07-04T15:50:53.125Z,6.27
2018-07-04T15:53:32.270Z,7.10
2018-07-04T15:56:11.302Z,7.30
2018-07-04T15:58:51.307Z,6.80
2018-07-04T16:01:32.125Z,6.90
2018-07-04T16:04:11.768Z,8.50
2018-07-04T16:06:50.966Z,6.33
2018-07-04T16:09:30.076Z,9.80
2018-07-04T16:12:09.169Z,7.70
2018-07-04T16:14:48.559Z,12.73
2018-07-04T16:17:27.634Z,9.83
2018-07-04T16:20:07.468Z,7.53
2018-07-04T16:22:46.938Z,6.90
2018-07-04T16:25:26.134Z,6.03
2018-07-04T16:28:05.271Z,5.50
2018-07-04T16:30:47.476Z,9.00
2018-07-04T16:33:26.543Z,6.77
2018-07-04T16:36:06.355Z,6.20
2018-07-04T16:38:45.255Z,7.60
2018-07-04T16:41:24.371Z,7.90
2018-07-04T16:44:03.599Z,7.37
2018-07-04T16:46:43.196Z,5.20
2018-07-04T16:49:22.378Z,8.37
2018-07-04T16:52:01.484Z,5.17
2018-07-04T16:54:41.774Z,7.23
2018-07-04T16:57:27.587Z,14.90
2018-07-04T17:00:06.839Z,6.27
2018-07-04T17:02:46.318Z,10.10
2018-07-04T17:05:25.638Z,8.33
2018-07-04T17:08:05.434Z,5.87
2018-07-04T17:10:44.506Z,7.17
2018-07-04T17:13:23.686Z,6.80
2018-07-04T17:16:02.850Z,7.17
2018-07-04T17:18:42.191Z,12.43
2018-07-04T17:21:21.417Z,8.13
2018-07-04T17:24:00.551Z,8.30
2018-07-04T17:26:45.533Z,8.37
2018-07-04T17:29:24.746Z,7.93
2018-07-04T17:32:03.803Z,6.07
2018-07-04T17:34:52.767Z,10.00
2018-07-04T17:37:32.060Z,6.07
2018-07-04T17:40:13.691Z,5.60
2018-07-04T17:43:01.147Z,6.90
2018-07-04T17:45:40.341Z,7.97
2018-07-04T17:48:20.133Z,12.07
2018-07-04T17:50:59.090Z,9.43
2018-07-04T17:53:38.567Z,7.80
2018-07-04T17:56:17.640Z,6.77
2018-07-04T17:59:00.601Z,8.70
2018-07-04T18:01:39.853Z,11.73
2018-07-04T18:04:19.137Z,10.50
2018-07-04T18:06:58.126Z,9.03
2018-07-04T18:09:41.728Z,6.90
2018-07-04T18:12:20.772Z,7.90
2018-07-04T18:15:04.116Z,6.30
2018-07-04T18:17:43.187Z,6.80
2018-07-04T18:20:22.753Z,7.40
2018-07-04T18:23:01.891Z,9.93
2018-07-04T18:25:40.895Z,8.00
2018-07-04T18:28:20.147Z,8.47
2018-07-04T18:31:05.251Z,10.13
2018-07-04T18:33:44.394Z,6.93
2018-07-04T18:36:24.172Z,8.70
2018-07-04T18:39:03.278Z,8.13
2018-07-04T18:41:42.395Z,6.73
2018-07-04T18:44:21.355Z,7.60
2018-07-04T18:47:01.978Z,6.93
2018-07-04T18:55:28.520Z,8.70
2018-07-04T18:58:07.418Z,7.10
2018-07-04T19:00:46.407Z,8.00
2018-07-04T19:03:27.010Z,9.30
2018-07-04T19:06:10.838Z,6.93
2018-07-04T19:08:49.590Z,9.30
2018-07-04T19:11:30.430Z,7.93
2018-07-04T19:14:10.182Z,6.70
2018-07-04T19:16:49.062Z,7.83
2018-07-04T19:19:27.750Z,6.90
2018-07-04T19:22:06.554Z,7.90
2018-07-04T19:24:47.570Z,7.40
2018-07-04T19:27:26.430Z,6.57
2018-07-04T19:30:06.299Z,7.73
2018-07-04T19:32:45.175Z,6.53
2018-07-04T19:35:27.568Z,7.47
2018-07-04T19:38:06.497Z,7.60
2018-07-04T19:40:45.250Z,7.73
2018-07-04T19:43:24.290Z,7.77
2018-07-04T19:46:03.234Z,10.43
2018-07-04T19:48:42.934Z,7.87
2018-07-04T19:51:22.097Z,8.77
2018-07-04T19:54:01.076Z,9.30
2018-07-04T19:56:39.909Z,7.70
2018-07-04T19:59:18.732Z,7.63
2018-07-04T20:02:14.883Z,10.47
2018-07-04T20:04:55.310Z,7.87
2018-07-04T20:07:34.358Z,8.20
2018-07-04T20:10:13.210Z,8.10
2018-07-04T20:12:54.117Z,9.03
2018-07-04T20:15:33.230Z,9.80
2018-07-04T20:18:14.783Z,7.37
2018-07-04T20:20:54.264Z,7.67
2018-07-04T20:23:33.662Z,7.93
2018-07-04T20:26:12.537Z,8.53
2018-07-04T20:28:51.447Z,10.93
2018-07-04T20:31:30.388Z,8.97
2018-07-04T20:34:09.264Z,10.10
2018-07-04T20:36:48.328Z,7.70
2018-07-04T20:39:27.226Z,7.20
2018-07-04T20:42:06.114Z,13.43
2018-07-04T20:44:44.948Z,7.83
2018-07-04T20:47:24.293Z,8.90
2018-07-04T20:50:03.104Z,8.10
2018-07-04T20:52:41.889Z,8.93
2018-07-04T20:55:21.052Z,7.77
2018-07-04T20:57:59.763Z,8.40
2018-07-04T21:00:38.733Z,8.63
2018-07-04T21:03:17.968Z,9.23
2018-07-04T21:05:57.010Z,8.00
2018-07-04T21:08:36.163Z,8.73
2018-07-04T21:11:17.114Z,9.10
2018-07-04T21:13:58.608Z,9.90
2018-07-04T21:16:37.537Z,8.33
2018-07-04T21:19:16.416Z,8.50
2018-07-04T21:21:55.254Z,8.63
2018-07-04T21:24:34.357Z,9.27
2018-07-04T21:27:13.510Z,8.20
2018-07-04T21:29:52.632Z,8.10
2018-07-04T21:32:31.455Z,9.60
2018-07-04T21:35:10.331Z,9.60
2018-07-04T21:37:49.171Z,9.37
2018-07-04T21:40:28.144Z,9.93
2018-07-04T21:43:06.974Z,8.80
2018-07-04T21:45:45.830Z,9.47
2018-07-04T21:48:24.791Z,8.60
2018-07-04T21:51:04.383Z,10.33
2018-07-04T21:53:43.091Z,9.57
2018-07-04T21:56:23.567Z,9.50
2018-07-04T21:59:03.053Z,10.10
2018-07-04T22:01:41.952Z,10.90
2018-07-04T22:04:21.073Z,9.77
2018-07-04T22:06:59.849Z,9.33
2018-07-04T22:09:38.780Z,9.47
2018-07-04T22:12:17.722Z,9.30
2018-07-04T22:14:56.588Z,9.57
2018-07-04T22:17:35.765Z,9.70
2018-07-04T22:20:14.556Z,10.87
2018-07-04T22:22:47.637Z,8.27
2018-07-04T22:25:26.593Z,8.40
2018-07-04T22:28:05.285Z,9.60
2018-07-04T22:30:45.041Z,8.57
2018-07-04T22:33:24.727Z,8.50
2018-07-04T22:36:03.582Z,8.50
2018-07-04T22:38:42.627Z,8.67
2018-07-04T22:41:21.551Z,7.97
2018-07-04T22:44:00.487Z,9.20
2018-07-04T22:46:39.439Z,10.20
2018-07-04T22:49:18.267Z,10.03
2018-07-04T22:52:03.826Z,10.40
2018-07-04T22:54:42.591Z,9.83
2018-07-04T22:57:21.470Z,9.87
2018-07-04T23:00:00.979Z,9.87
2018-07-04T23:02:39.998Z,10.50
2018-07-04T23:05:19.231Z,10.57
2018-07-04T23:07:58.266Z,10.10
2018-07-04T23:10:37.294Z,10.70
2018-07-04T23:13:16.215Z,9.37
2018-07-04T23:15:55.324Z,12.87
2018-07-04T23:18:34.350Z,10.03
2018-07-04T23:21:13.242Z,10.57
2018-07-04T23:23:47.039Z,9.30
2018-07-04T23:26:25.722Z,9.30
2018-07-04T23:29:04.618Z,10.07
2018-07-04T23:31:43.587Z,11.30
2018-07-04T23:34:22.522Z,11.00
2018-07-04T23:37:01.402Z,10.17
2018-07-04T23:39:40.811Z,10.20
2018-07-04T23:42:19.727Z,11.10
2018-07-04T23:44:58.784Z,10.50
2018-07-04T23:47:37.712Z,11.03
2018-07-04T23:50:16.618Z,10.20
2018-07-04T23:52:55.521Z,10.63
2018-07-04T23:55:34.320Z,13.83
2018-07-04T23:58:13.219Z,10.37
